sensor_id;sensor_type;location;lat;lon;timestamp;pressure;altitude;pressure_sealevel;temperature;humidity
72210;BME280;60113;48.762;12.302;2022-09-09T00:02:27;97024.44;;;9.39;80.42
72210;BME280;60113;48.762;12.302;2022-09-09T00:08:03;97031.81;;;9.34;77.74
72210;BME280;60113;48.762;12.302;2022-09-09T00:10:58;97026.09;;;9.29;76.74
72210;BME280;60113;48.762;12.302;2022-09-09T00:13:53;97022.00;;;9.24;76.87
72210;BME280;60113;48.762;12.302;2022-09-09T00:16:49;97019.72;;;9.20;78.05
72210;BME280;60113;48.762;12.302;2022-09-09T00:19:48;97022.56;;;9.17;79.14
72210;BME280;60113;48.762;12.302;2022-09-09T00:22:36;97013.38;;;9.11;76.84
72210;BME280;60113;48.762;12.302;2022-09-09T00:25:35;97010.25;;;9.06;78.71
72210;BME280;60113;48.762;12.302;2022-09-09T00:28:25;97009.88;;;8.99;78.14
72210;BME280;60113;48.762;12.302;2022-09-09T00:31:26;97007.59;;;8.94;78.36
72210;BME280;60113;48.762;12.302;2022-09-09T00:34:17;96995.66;;;8.90;75.72
72210;BME280;60113;48.762;12.302;2022-09-09T00:37:04;97009.59;;;8.91;74.94
72210;BME280;60113;48.762;12.302;2022-09-09T00:39:51;97011.03;;;8.95;78.24
72210;BME280;60113;48.762;12.302;2022-09-09T00:42:43;97010.59;;;9.01;83.69
72210;BME280;60113;48.762;12.302;2022-09-09T00:48:33;97010.16;;;9.07;81.61
72210;BME280;60113;48.762;12.302;2022-09-09T00:51:35;97008.47;;;9.06;80.77
72210;BME280;60113;48.762;12.302;2022-09-09T00:57:36;97008.09;;;8.99;80.50
72210;BME280;60113;48.762;12.302;2022-09-09T01:00:24;97017.03;;;8.97;81.19
72210;BME280;60113;48.762;12.302;2022-09-09T01:06:31;97012.34;;;8.89;79.65
72210;BME280;60113;48.762;12.302;2022-09-09T01:09:27;97010.06;;;8.84;79.39
72210;BME280;60113;48.762;12.302;2022-09-09T01:15:10;97011.78;;;8.72;80.64
72210;BME280;60113;48.762;12.302;2022-09-09T01:26:52;97006.38;;;8.62;76.53
72210;BME280;60113;48.762;12.302;2022-09-09T01:29:39;97008.88;;;8.64;79.39
72210;BME280;60113;48.762;12.302;2022-09-09T01:32:40;97016.63;;;8.66;80.47
72210;BME280;60113;48.762;12.302;2022-09-09T01:35:39;97022.72;;;8.66;80.18
72210;BME280;60113;48.762;12.302;2022-09-09T01:38:25;97015.06;;;8.63;78.92
72210;BME280;60113;48.762;12.302;2022-09-09T01:41:12;97016.34;;;8.57;78.44
72210;BME280;60113;48.762;12.302;2022-09-09T01:43:58;97014.25;;;8.49;79.19
72210;BME280;60113;48.762;12.302;2022-09-09T01:46:44;97005.78;;;8.46;76.41
72210;BME280;60113;48.762;12.302;2022-09-09T01:49:30;97004.22;;;8.43;77.03
72210;BME280;60113;48.762;12.302;2022-09-09T01:52:16;97006.84;;;8.43;80.03
72210;BME280;60113;48.762;12.302;2022-09-09T01:55:03;97008.50;;;8.44;80.33
72210;BME280;60113;48.762;12.302;2022-09-09T01:58:11;97005.88;;;8.44;81.63
72210;BME280;60113;48.762;12.302;2022-09-09T02:03:57;97006.31;;;8.38;79.14
72210;BME280;60113;48.762;12.302;2022-09-09T02:06:48;97005.47;;;8.37;78.49
72210;BME280;60113;48.762;12.302;2022-09-09T02:09:36;97011.66;;;8.36;78.88
72210;BME280;60113;48.762;12.302;2022-09-09T02:12:23;97011.66;;;8.36;79.56
72210;BME280;60113;48.762;12.302;2022-09-09T02:18:08;97023.09;;;8.35;80.24
72210;BME280;60113;48.762;12.302;2022-09-09T02:20:56;97033.66;;;8.34;80.33
72210;BME280;60113;48.762;12.302;2022-09-09T02:23:44;97031.97;;;8.33;79.86
72210;BME280;60113;48.762;12.302;2022-09-09T02:26:33;97031.97;;;8.33;81.31
72210;BME280;60113;48.762;12.302;2022-09-09T02:29:31;97032.59;;;8.36;83.33
72210;BME280;60113;48.762;12.302;2022-09-09T02:32:21;97035.66;;;8.43;80.01
72210;BME280;60113;48.762;12.302;2022-09-09T02:35:14;97033.63;;;8.60;81.85
72210;BME280;60113;48.762;12.302;2022-09-09T02:38:04;97026.66;;;8.72;80.51
72210;BME280;60113;48.762;12.302;2022-09-09T02:40:52;97021.81;;;8.79;82.46
72210;BME280;60113;48.762;12.302;2022-09-09T02:43:38;97012.78;;;8.83;80.40
72210;BME280;60113;48.762;12.302;2022-09-09T02:49:15;97014.63;;;8.94;81.15
72210;BME280;60113;48.762;12.302;2022-09-09T02:52:20;97016.91;;;8.98;81.44
72210;BME280;60113;48.762;12.302;2022-09-09T02:58:07;97021.75;;;8.92;82.61
72210;BME280;60113;48.762;12.302;2022-09-09T03:00:54;97022.81;;;8.89;81.91
72210;BME280;60113;48.762;12.302;2022-09-09T03:04:29;97012.44;;;8.87;82.37
72210;BME280;60113;48.762;12.302;2022-09-09T03:07:17;97015.28;;;8.84;79.99
72210;BME280;60113;48.762;12.302;2022-09-09T03:10:03;97018.75;;;8.85;80.01
72210;BME280;60113;48.762;12.302;2022-09-09T03:12:49;97020.66;;;8.83;79.15
72210;BME280;60113;48.762;12.302;2022-09-09T03:15:35;97026.00;;;8.81;80.76
72210;BME280;60113;48.762;12.302;2022-09-09T03:18:21;97011.34;;;8.79;81.58
72210;BME280;60113;48.762;12.302;2022-09-09T03:21:07;97014.78;;;8.79;81.45
72210;BME280;60113;48.762;12.302;2022-09-09T03:23:53;97007.16;;;8.76;83.16
72210;BME280;60113;48.762;12.302;2022-09-09T03:26:38;97011.56;;;8.75;81.80
72210;BME280;60113;48.762;12.302;2022-09-09T03:29:26;97017.97;;;8.71;86.21
72210;BME280;60113;48.762;12.302;2022-09-09T03:32:12;97014.63;;;8.69;82.44
72210;BME280;60113;48.762;12.302;2022-09-09T03:34:58;97011.91;;;8.71;79.51
72210;BME280;60113;48.762;12.302;2022-09-09T03:37:44;97010.09;;;8.71;80.59
72210;BME280;60113;48.762;12.302;2022-09-09T03:40:30;97012.81;;;8.70;79.20
72210;BME280;60113;48.762;12.302;2022-09-09T03:43:16;97001.75;;;8.66;77.54
72210;BME280;60113;48.762;12.302;2022-09-09T03:46:02;96998.41;;;8.64;77.50
72210;BME280;60113;48.762;12.302;2022-09-09T03:48:48;97001.97;;;8.63;80.49
72210;BME280;60113;48.762;12.302;2022-09-09T03:51:34;97002.19;;;8.60;80.63
72210;BME280;60113;48.762;12.302;2022-09-09T03:54:23;97001.69;;;8.55;81.04
72210;BME280;60113;48.762;12.302;2022-09-09T03:57:09;96995.94;;;8.49;83.35
72210;BME280;60113;48.762;12.302;2022-09-09T03:59:55;96997.81;;;8.47;82.95
72210;BME280;60113;48.762;12.302;2022-09-09T04:02:41;96996.25;;;8.45;82.83
72210;BME280;60113;48.762;12.302;2022-09-09T04:05:29;96998.25;;;8.41;80.83
72210;BME280;60113;48.762;12.302;2022-09-09T04:08:14;97000.03;;;8.41;84.30
72210;BME280;60113;48.762;12.302;2022-09-09T04:11:01;96992.38;;;8.37;84.62
72210;BME280;60113;48.762;12.302;2022-09-09T04:13:47;96995.09;;;8.36;83.80
72210;BME280;60113;48.762;12.302;2022-09-09T04:16:34;96995.00;;;8.37;79.27
72210;BME280;60113;48.762;12.302;2022-09-09T04:19:22;96987.56;;;8.44;79.64
72210;BME280;60113;48.762;12.302;2022-09-09T04:22:07;96987.00;;;8.52;80.01
72210;BME280;60113;48.762;12.302;2022-09-09T04:24:53;96985.09;;;8.67;79.44
72210;BME280;60113;48.762;12.302;2022-09-09T04:27:39;96989.53;;;8.78;78.88
72210;BME280;60113;48.762;12.302;2022-09-09T04:30:25;96999.69;;;8.83;81.28
72210;BME280;60113;48.762;12.302;2022-09-09T04:33:13;96998.94;;;8.81;82.68
72210;BME280;60113;48.762;12.302;2022-09-09T04:35:59;97003.94;;;8.72;83.99
72210;BME280;60113;48.762;12.302;2022-09-09T04:38:46;97010.06;;;8.60;85.15
72210;BME280;60113;48.762;12.302;2022-09-09T04:41:32;97008.28;;;8.47;86.99
72210;BME280;60113;48.762;12.302;2022-09-09T04:44:18;96995.75;;;8.40;85.08
72210;BME280;60113;48.762;12.302;2022-09-09T04:47:04;96995.22;;;8.34;84.09
72210;BME280;60113;48.762;12.302;2022-09-09T04:49:50;96994.63;;;8.31;85.21
72210;BME280;60113;48.762;12.302;2022-09-09T04:52:37;96997.25;;;8.31;84.76
72210;BME280;60113;48.762;12.302;2022-09-09T04:55:23;97000.78;;;8.30;80.97
72210;BME280;60113;48.762;12.302;2022-09-09T04:58:08;97000.06;;;8.28;84.31
72210;BME280;60113;48.762;12.302;2022-09-09T05:00:54;97002.06;;;8.24;81.35
72210;BME280;60113;48.762;12.302;2022-09-09T05:03:40;97000.50;;;8.21;79.63
72210;BME280;60113;48.762;12.302;2022-09-09T05:06:26;97006.78;;;8.19;80.87
72210;BME280;60113;48.762;12.302;2022-09-09T05:09:12;96997.38;;;8.16;81.88
72210;BME280;60113;48.762;12.302;2022-09-09T05:11:57;96994.75;;;8.16;81.26
72210;BME280;60113;48.762;12.302;2022-09-09T05:14:44;96999.13;;;8.16;81.27
72210;BME280;60113;48.762;12.302;2022-09-09T05:17:29;97002.72;;;8.15;80.55
72210;BME280;60113;48.762;12.302;2022-09-09T05:20:15;97012.31;;;8.14;80.88
72210;BME280;60113;48.762;12.302;2022-09-09T05:23:02;97006.16;;;8.15;81.21
72210;BME280;60113;48.762;12.302;2022-09-09T05:25:55;97004.25;;;8.17;81.93
72210;BME280;60113;48.762;12.302;2022-09-09T05:28:41;97013.81;;;8.18;80.59
72210;BME280;60113;48.762;12.302;2022-09-09T05:31:27;97010.34;;;8.18;83.65
72210;BME280;60113;48.762;12.302;2022-09-09T05:34:15;97013.81;;;8.18;81.60
72210;BME280;60113;48.762;12.302;2022-09-09T05:37:01;97015.56;;;8.18;79.85
72210;BME280;60113;48.762;12.302;2022-09-09T05:39:47;97016.22;;;8.21;82.44
72210;BME280;60113;48.762;12.302;2022-09-09T05:42:33;97024.56;;;8.26;79.86
72210;BME280;60113;48.762;12.302;2022-09-09T05:45:20;97025.72;;;8.35;80.62
72210;BME280;60113;48.762;12.302;2022-09-09T05:48:06;97020.75;;;8.44;81.32
72210;BME280;60113;48.762;12.302;2022-09-09T05:50:53;97017.47;;;8.53;82.54
72210;BME280;60113;48.762;12.302;2022-09-09T05:53:39;97019.34;;;8.64;80.71
72210;BME280;60113;48.762;12.302;2022-09-09T05:56:27;97024.78;;;8.74;81.21
72210;BME280;60113;48.762;12.302;2022-09-09T05:59:14;97023.03;;;8.86;87.09
72210;BME280;60113;48.762;12.302;2022-09-09T06:02:00;97019.53;;;8.98;83.58
72210;BME280;60113;48.762;12.302;2022-09-09T06:04:46;97011.72;;;9.10;83.87
72210;BME280;60113;48.762;12.302;2022-09-09T06:07:32;97014.75;;;9.28;92.68
72210;BME280;60113;48.762;12.302;2022-09-09T06:10:17;97008.44;;;9.31;88.74
72210;BME280;60113;48.762;12.302;2022-09-09T06:13:04;97008.00;;;9.48;86.21
72210;BME280;60113;48.762;12.302;2022-09-09T06:15:51;97008.06;;;9.83;83.62
72210;BME280;60113;48.762;12.302;2022-09-09T06:18:38;97003.84;;;10.37;84.14
72210;BME280;60113;48.762;12.302;2022-09-09T06:21:29;97013.09;;;10.87;83.81
72210;BME280;60113;48.762;12.302;2022-09-09T06:24:15;97020.13;;;11.41;84.98
72210;BME280;60113;48.762;12.302;2022-09-09T06:27:03;97020.47;;;12.00;85.88
72210;BME280;60113;48.762;12.302;2022-09-09T06:29:49;97020.72;;;12.60;86.89
72210;BME280;60113;48.762;12.302;2022-09-09T06:32:34;97014.66;;;12.89;86.50
72210;BME280;60113;48.762;12.302;2022-09-09T06:35:22;97023.69;;;13.06;87.63
72210;BME280;60113;48.762;12.302;2022-09-09T06:38:08;97021.59;;;13.30;88.00
72210;BME280;60113;48.762;12.302;2022-09-09T06:40:55;97020.63;;;13.31;86.10
72210;BME280;60113;48.762;12.302;2022-09-09T06:43:41;97016.59;;;13.17;85.34
72210;BME280;60113;48.762;12.302;2022-09-09T06:46:28;97017.31;;;12.99;84.50
72210;BME280;60113;48.762;12.302;2022-09-09T06:49:16;97025.75;;;12.93;84.39
72210;BME280;60113;48.762;12.302;2022-09-09T06:52:02;97028.13;;;12.96;84.03
72210;BME280;60113;48.762;12.302;2022-09-09T06:54:48;97025.06;;;13.00;83.72
72210;BME280;60113;48.762;12.302;2022-09-09T06:57:33;97033.25;;;13.17;84.44
72210;BME280;60113;48.762;12.302;2022-09-09T07:00:19;97028.78;;;13.47;85.06
72210;BME280;60113;48.762;12.302;2022-09-09T07:03:05;97025.41;;;13.85;84.66
72210;BME280;60113;48.762;12.302;2022-09-09T07:05:55;97021.97;;;14.22;84.58
72210;BME280;60113;48.762;12.302;2022-09-09T07:08:41;97018.00;;;14.65;86.33
72210;BME280;60113;48.762;12.302;2022-09-09T07:11:30;97023.03;;;14.86;86.21
72210;BME280;60113;48.762;12.302;2022-09-09T07:14:16;97024.63;;;14.79;83.98
72210;BME280;60113;48.762;12.302;2022-09-09T07:17:02;97016.50;;;14.62;83.81
72210;BME280;60113;48.762;12.302;2022-09-09T07:19:48;97019.47;;;14.49;83.51
72210;BME280;60113;48.762;12.302;2022-09-09T07:22:33;97018.56;;;14.40;82.72
72210;BME280;60113;48.762;12.302;2022-09-09T07:25:19;97027.13;;;14.70;83.89
72210;BME280;60113;48.762;12.302;2022-09-09T07:28:06;97028.69;;;15.28;84.50
72210;BME280;60113;48.762;12.302;2022-09-09T07:31:00;97038.38;;;15.82;83.58
72210;BME280;60113;48.762;12.302;2022-09-09T07:33:49;97042.66;;;16.36;85.25
72210;BME280;60113;48.762;12.302;2022-09-09T07:36:37;97051.06;;;16.58;83.23
72210;BME280;60113;48.762;12.302;2022-09-09T07:39:24;97046.31;;;16.78;83.70
72210;BME280;60113;48.762;12.302;2022-09-09T07:42:09;97057.94;;;16.85;84.16
72210;BME280;60113;48.762;12.302;2022-09-09T07:44:57;97068.38;;;16.79;82.08
72210;BME280;60113;48.762;12.302;2022-09-09T07:47:42;97063.44;;;16.92;82.03
72210;BME280;60113;48.762;12.302;2022-09-09T07:50:29;97081.81;;;16.85;81.64
72210;BME280;60113;48.762;12.302;2022-09-09T07:53:15;97111.25;;;16.31;80.15
72210;BME280;60113;48.762;12.302;2022-09-09T07:56:10;97102.47;;;16.04;81.05
72210;BME280;60113;48.762;12.302;2022-09-09T07:58:58;97119.56;;;15.91;80.94
72210;BME280;60113;48.762;12.302;2022-09-09T08:01:46;97116.03;;;15.82;80.13
72210;BME280;60113;48.762;12.302;2022-09-09T08:04:32;97106.06;;;15.76;79.84
72210;BME280;60113;48.762;12.302;2022-09-09T08:07:19;97102.50;;;15.67;78.87
72210;BME280;60113;48.762;12.302;2022-09-09T08:10:07;97104.03;;;15.52;78.61
72210;BME280;60113;48.762;12.302;2022-09-09T08:12:52;97108.72;;;15.58;78.79
72210;BME280;60113;48.762;12.302;2022-09-09T08:15:38;97117.72;;;15.65;78.55
72210;BME280;60113;48.762;12.302;2022-09-09T08:18:26;97114.19;;;15.56;77.66
72210;BME280;60113;48.762;12.302;2022-09-09T08:21:15;97110.00;;;15.54;77.62
72210;BME280;60113;48.762;12.302;2022-09-09T08:24:03;97109.25;;;15.43;78.38
72210;BME280;60113;48.762;12.302;2022-09-09T08:26:50;97108.50;;;15.33;78.94
72210;BME280;60113;48.762;12.302;2022-09-09T08:29:36;97114.41;;;15.27;78.92
72210;BME280;60113;48.762;12.302;2022-09-09T08:32:23;97127.31;;;15.30;78.10
72210;BME280;60113;48.762;12.302;2022-09-09T08:35:09;97130.34;;;15.35;77.79
72210;BME280;60113;48.762;12.302;2022-09-09T08:37:54;97120.44;;;15.37;78.12
72210;BME280;60113;48.762;12.302;2022-09-09T08:40:44;97116.94;;;15.36;78.65
72210;BME280;60113;48.762;12.302;2022-09-09T08:43:34;97124.09;;;15.36;78.46
72210;BME280;60113;48.762;12.302;2022-09-09T08:46:27;97125.88;;;15.35;76.80
72210;BME280;60113;48.762;12.302;2022-09-09T08:52:48;97121.78;;;15.23;76.80
72210;BME280;60113;48.762;12.302;2022-09-09T08:58:30;97119.88;;;15.15;77.00
72210;BME280;60113;48.762;12.302;2022-09-09T09:11:08;97129.97;;;15.11;77.64
72210;BME280;60113;48.762;12.302;2022-09-09T09:14:03;97130.91;;;15.10;77.42
72210;BME280;60113;48.762;12.302;2022-09-09T09:17:06;97132.34;;;15.05;77.41
72210;BME280;60113;48.762;12.302;2022-09-09T09:19:55;97126.66;;;14.99;76.44
72210;BME280;60113;48.762;12.302;2022-09-09T09:22:48;97121.31;;;14.91;75.67
72210;BME280;60113;48.762;12.302;2022-09-09T09:25:38;97113.13;;;14.84;75.61
72210;BME280;60113;48.762;12.302;2022-09-09T09:28:30;97120.91;;;14.76;75.94
72210;BME280;60113;48.762;12.302;2022-09-09T09:31:18;97121.34;;;14.71;75.79
72210;BME280;60113;48.762;12.302;2022-09-09T09:34:07;97117.47;;;14.66;77.65
72210;BME280;60113;48.762;12.302;2022-09-09T09:36:56;97130.31;;;14.60;78.01
72210;BME280;60113;48.762;12.302;2022-09-09T09:39:42;97140.09;;;14.50;77.07
72210;BME280;60113;48.762;12.302;2022-09-09T09:42:28;97129.56;;;14.40;78.18
72210;BME280;60113;48.762;12.302;2022-09-09T09:45:43;97130.00;;;14.35;81.29
72210;BME280;60113;48.762;12.302;2022-09-09T09:48:32;97122.50;;;14.31;77.24
72210;BME280;60113;48.762;12.302;2022-09-09T09:51:20;97119.41;;;14.35;77.98
72210;BME280;60113;48.762;12.302;2022-09-09T09:54:28;97111.88;;;14.41;82.69
72210;BME280;60113;48.762;12.302;2022-09-09T09:57:16;97103.06;;;14.50;80.75
72210;BME280;60113;48.762;12.302;2022-09-09T10:02:52;97091.88;;;14.66;79.79
72210;BME280;60113;48.762;12.302;2022-09-09T10:05:45;97083.88;;;14.76;79.90
72210;BME280;60113;48.762;12.302;2022-09-09T10:08:34;97072.28;;;14.87;83.62
72210;BME280;60113;48.762;12.302;2022-09-09T10:14:33;97078.97;;;14.91;81.07
72210;BME280;60113;48.762;12.302;2022-09-09T10:17:40;97081.47;;;14.93;81.57
72210;BME280;60113;48.762;12.302;2022-09-09T10:32:49;97052.53;;;15.09;80.14
72210;BME280;60113;48.762;12.302;2022-09-09T10:38:45;97054.03;;;15.12;82.61
72210;BME280;60113;48.762;12.302;2022-09-09T10:41:43;97060.00;;;15.14;81.13
72210;BME280;60113;48.762;12.302;2022-09-09T10:44:50;97066.38;;;15.21;80.82
72210;BME280;60113;48.762;12.302;2022-09-09T10:48:12;97068.09;;;15.31;82.14
72210;BME280;60113;48.762;12.302;2022-09-09T10:51:17;97062.66;;;15.32;82.63
72210;BME280;60113;48.762;12.302;2022-09-09T10:54:08;97069.84;;;15.40;81.15
72210;BME280;60113;48.762;12.302;2022-09-09T10:57:03;97063.47;;;15.51;80.86
72210;BME280;60113;48.762;12.302;2022-09-09T10:59:55;97070.34;;;15.62;80.16
72210;BME280;60113;48.762;12.302;2022-09-09T11:02:43;97081.63;;;15.64;79.52
72210;BME280;60113;48.762;12.302;2022-09-09T11:05:44;97084.75;;;15.59;80.28
72210;BME280;60113;48.762;12.302;2022-09-09T11:08:35;97093.28;;;15.53;80.20
72210;BME280;60113;48.762;12.302;2022-09-09T11:11:37;97093.16;;;15.55;80.46
72210;BME280;60113;48.762;12.302;2022-09-09T11:14:56;97110.53;;;15.57;81.10
72210;BME280;60113;48.762;12.302;2022-09-09T11:17:53;97123.31;;;15.62;80.85
72210;BME280;60113;48.762;12.302;2022-09-09T11:20:41;97135.66;;;15.71;80.06
72210;BME280;60113;48.762;12.302;2022-09-09T11:23:39;97136.19;;;15.75;80.75
72210;BME280;60113;48.762;12.302;2022-09-09T11:26:33;97142.00;;;15.79;79.87
72210;BME280;60113;48.762;12.302;2022-09-09T11:29:31;97129.13;;;15.84;79.13
72210;BME280;60113;48.762;12.302;2022-09-09T11:39:01;97131.16;;;16.35;79.76
72210;BME280;60113;48.762;12.302;2022-09-09T11:41:51;97124.34;;;16.67;79.08
72210;BME280;60113;48.762;12.302;2022-09-09T11:44:37;97122.56;;;17.11;79.50
72210;BME280;60113;48.762;12.302;2022-09-09T11:47:27;97114.53;;;17.62;79.40
72210;BME280;60113;48.762;12.302;2022-09-09T11:56:10;97103.19;;;18.10;77.55
72210;BME280;60113;48.762;12.302;2022-09-09T11:59:16;97108.16;;;18.30;78.37
72210;BME280;60113;48.762;12.302;2022-09-09T12:02:19;97102.19;;;18.28;75.99
72210;BME280;60113;48.762;12.302;2022-09-09T12:05:12;97112.50;;;18.15;76.45
72210;BME280;60113;48.762;12.302;2022-09-09T12:08:00;97112.16;;;18.09;76.95
72210;BME280;60113;48.762;12.302;2022-09-09T12:10:56;97108.69;;;18.09;75.79
72210;BME280;60113;48.762;12.302;2022-09-09T12:13:52;97104.72;;;17.96;74.47
72210;BME280;60113;48.762;12.302;2022-09-09T12:16:38;97105.53;;;18.05;75.91
72210;BME280;60113;48.762;12.302;2022-09-09T12:19:25;97098.03;;;18.09;74.71
72210;BME280;60113;48.762;12.302;2022-09-09T12:28:42;97091.53;;;18.45;72.84
72210;BME280;60113;48.762;12.302;2022-09-09T12:34:44;97085.69;;;18.90;73.62
72210;BME280;60113;48.762;12.302;2022-09-09T12:37:37;97080.97;;;19.00;70.46
72210;BME280;60113;48.762;12.302;2022-09-09T12:40:32;97073.06;;;19.15;72.90
72210;BME280;60113;48.762;12.302;2022-09-09T12:43:22;97071.41;;;19.14;71.80
72210;BME280;60113;48.762;12.302;2022-09-09T12:46:22;97060.16;;;19.04;68.88
72210;BME280;60113;48.762;12.302;2022-09-09T12:49:38;97055.13;;;18.77;70.55
72210;BME280;60113;48.762;12.302;2022-09-09T12:52:37;97065.03;;;18.60;70.12
72210;BME280;60113;48.762;12.302;2022-09-09T12:55:29;97057.19;;;18.67;70.56
72210;BME280;60113;48.762;12.302;2022-09-09T12:58:17;97053.59;;;18.83;71.06
72210;BME280;60113;48.762;12.302;2022-09-09T13:01:05;97042.06;;;18.91;69.97
72210;BME280;60113;48.762;12.302;2022-09-09T13:03:52;97037.66;;;19.06;70.84
72210;BME280;60113;48.762;12.302;2022-09-09T13:06:38;97037.47;;;19.16;69.92
72210;BME280;60113;48.762;12.302;2022-09-09T13:09:24;97025.66;;;19.34;70.34
72210;BME280;60113;48.762;12.302;2022-09-09T13:12:17;97033.47;;;19.35;70.30
72210;BME280;60113;48.762;12.302;2022-09-09T13:15:04;97030.53;;;19.30;69.03
72210;BME280;60113;48.762;12.302;2022-09-09T13:17:59;97022.91;;;19.27;67.60
72210;BME280;60113;48.762;12.302;2022-09-09T13:20:48;97024.84;;;19.33;69.58
72210;BME280;60113;48.762;12.302;2022-09-09T13:23:36;97003.81;;;19.39;69.46
72210;BME280;60113;48.762;12.302;2022-09-09T13:26:25;97001.38;;;19.52;68.13
72210;BME280;60113;48.762;12.302;2022-09-09T13:29:18;97000.94;;;19.64;65.39
72210;BME280;60113;48.762;12.302;2022-09-09T13:32:04;96994.34;;;19.90;66.35
72210;BME280;60113;48.762;12.302;2022-09-09T13:40:21;96982.75;;;20.58;64.36
72210;BME280;60113;48.762;12.302;2022-09-09T13:43:20;96973.41;;;20.69;62.37
72210;BME280;60113;48.762;12.302;2022-09-09T13:49:28;96961.91;;;20.68;63.29
72210;BME280;60113;48.762;12.302;2022-09-09T13:52:18;96955.69;;;20.83;64.10
72210;BME280;60113;48.762;12.302;2022-09-09T13:55:05;96961.50;;;20.86;64.78
72210;BME280;60113;48.762;12.302;2022-09-09T13:58:00;96949.25;;;20.92;59.90
72210;BME280;60113;48.762;12.302;2022-09-09T14:00:47;96951.72;;;21.16;66.23
72210;BME280;60113;48.762;12.302;2022-09-09T14:03:34;96949.59;;;21.33;66.41
72210;BME280;60113;48.762;12.302;2022-09-09T14:06:20;96953.78;;;21.42;65.17
72210;BME280;60113;48.762;12.302;2022-09-09T14:09:12;96947.66;;;21.48;63.56
72210;BME280;60113;48.762;12.302;2022-09-09T14:11:58;96944.59;;;21.52;64.73
72210;BME280;60113;48.762;12.302;2022-09-09T14:14:44;96950.09;;;21.43;65.44
72210;BME280;60113;48.762;12.302;2022-09-09T14:17:30;96950.28;;;21.13;65.90
72210;BME280;60113;48.762;12.302;2022-09-09T14:20:16;96954.09;;;20.89;64.77
72210;BME280;60113;48.762;12.302;2022-09-09T14:23:03;96954.34;;;20.72;64.45
72210;BME280;60113;48.762;12.302;2022-09-09T14:25:50;96955.63;;;20.76;65.12
72210;BME280;60113;48.762;12.302;2022-09-09T14:28:36;96958.44;;;20.90;65.10
72210;BME280;60113;48.762;12.302;2022-09-09T14:31:23;96954.84;;;20.97;64.51
72210;BME280;60113;48.762;12.302;2022-09-09T14:34:10;96954.22;;;20.95;64.37
72210;BME280;60113;48.762;12.302;2022-09-09T14:36:56;96948.94;;;20.87;65.12
72210;BME280;60113;48.762;12.302;2022-09-09T14:39:42;96955.19;;;20.72;64.45
72210;BME280;60113;48.762;12.302;2022-09-09T14:42:32;96964.00;;;20.36;64.62
72210;BME280;60113;48.762;12.302;2022-09-09T14:45:18;96965.50;;;20.08;64.63
72210;BME280;60113;48.762;12.302;2022-09-09T14:48:04;96966.59;;;19.84;64.51
72210;BME280;60113;48.762;12.302;2022-09-09T14:50:50;96970.25;;;19.68;64.74
72210;BME280;60113;48.762;12.302;2022-09-09T14:53:36;96975.31;;;19.63;65.43
72210;BME280;60113;48.762;12.302;2022-09-09T14:56:24;96976.06;;;19.71;65.62
72210;BME280;60113;48.762;12.302;2022-09-09T14:59:11;96972.97;;;20.13;65.39
72210;BME280;60113;48.762;12.302;2022-09-09T15:01:58;96972.94;;;20.43;64.70
72210;BME280;60113;48.762;12.302;2022-09-09T15:04:49;96977.06;;;20.46;65.48
72210;BME280;60113;48.762;12.302;2022-09-09T15:07:38;96972.38;;;20.33;63.76
72210;BME280;60113;48.762;12.302;2022-09-09T15:10:24;96968.72;;;20.04;62.88
72210;BME280;60113;48.762;12.302;2022-09-09T15:13:12;96985.44;;;19.67;63.27
72210;BME280;60113;48.762;12.302;2022-09-09T15:16:06;96979.84;;;19.39;63.79
72210;BME280;60113;48.762;12.302;2022-09-09T15:18:55;96982.34;;;19.17;64.47
72210;BME280;60113;48.762;12.302;2022-09-09T15:21:42;96973.28;;;19.03;64.75
72210;BME280;60113;48.762;12.302;2022-09-09T15:24:27;96975.03;;;18.87;64.78
72210;BME280;60113;48.762;12.302;2022-09-09T15:27:13;96977.16;;;18.68;64.98
72210;BME280;60113;48.762;12.302;2022-09-09T15:30:00;96981.59;;;18.53;64.80
72210;BME280;60113;48.762;12.302;2022-09-09T15:32:46;96980.16;;;18.33;65.23
72210;BME280;60113;48.762;12.302;2022-09-09T15:35:32;96974.09;;;18.16;65.43
72210;BME280;60113;48.762;12.302;2022-09-09T15:38:18;96971.75;;;18.05;65.82
72210;BME280;60113;48.762;12.302;2022-09-09T15:41:04;96967.00;;;17.92;65.63
72210;BME280;60113;48.762;12.302;2022-09-09T15:43:52;96964.53;;;17.82;65.56
72210;BME280;60113;48.762;12.302;2022-09-09T15:46:48;96969.22;;;17.71;65.81
72210;BME280;60113;48.762;12.302;2022-09-09T15:49:34;96961.41;;;17.61;66.16
72210;BME280;60113;48.762;12.302;2022-09-09T15:52:20;96957.13;;;17.52;66.91
72210;BME280;60113;48.762;12.302;2022-09-09T15:55:07;96964.28;;;17.43;66.74
72210;BME280;60113;48.762;12.302;2022-09-09T15:57:53;96966.28;;;17.33;67.14
72210;BME280;60113;48.762;12.302;2022-09-09T16:00:40;96958.47;;;17.23;67.23
72210;BME280;60113;48.762;12.302;2022-09-09T16:03:26;96948.69;;;17.15;67.45
72210;BME280;60113;48.762;12.302;2022-09-09T16:06:15;96950.34;;;17.08;67.83
72210;BME280;60113;48.762;12.302;2022-09-09T16:09:03;96952.00;;;17.00;67.83
72210;BME280;60113;48.762;12.302;2022-09-09T16:11:50;96957.97;;;16.94;67.80
72210;BME280;60113;48.762;12.302;2022-09-09T16:14:38;96959.59;;;16.87;68.25
72210;BME280;60113;48.762;12.302;2022-09-09T16:17:24;96969.88;;;16.82;68.90
72210;BME280;60113;48.762;12.302;2022-09-09T16:20:10;96971.34;;;16.76;68.46
72210;BME280;60113;48.762;12.302;2022-09-09T16:22:57;96984.13;;;16.72;68.71
72210;BME280;60113;48.762;12.302;2022-09-09T16:25:44;96983.44;;;16.70;68.92
72210;BME280;60113;48.762;12.302;2022-09-09T16:28:30;96991.72;;;16.67;69.29
72210;BME280;60113;48.762;12.302;2022-09-09T16:31:20;96977.97;;;16.64;69.70
72210;BME280;60113;48.762;12.302;2022-09-09T16:34:07;96980.97;;;16.60;69.41